createdAt,value
2018-12-18T00:02:27.749Z,81.83
2018-12-18T00:05:00.921Z,84.83
2018-12-18T00:07:32.317Z,81.97
2018-12-18T00:10:01.683Z,84.87
2018-12-18T00:12:31.924Z,81.70
2018-12-18T00:15:01.410Z,82.60
2018-12-18T00:17:32.076Z,78.53
2018-12-18T00:20:01.444Z,82.60
2018-12-18T00:22:30.824Z,83.13
2018-12-18T00:25:00.371Z,74.23
2018-12-18T00:27:29.581Z,78.27
2018-12-18T00:30:00.301Z,76.30
2018-12-18T00:32:29.812Z,77.27
2018-12-18T00:34:59.102Z,88.30
2018-12-18T00:37:28.425Z,81.37
2018-12-18T00:39:58.012Z,75.93
2018-12-18T00:42:27.299Z,77.77
2018-12-18T00:44:56.657Z,81.90
2018-12-18T00:47:25.962Z,81.33
2018-12-18T00:49:55.221Z,80.67
2018-12-18T00:52:24.612Z,82.50
2018-12-18T00:54:53.881Z,83.07
2018-12-18T00:57:23.123Z,77.53
2018-12-18T00:59:52.471Z,78.57
2018-12-18T01:02:21.728Z,80.47
2018-12-18T01:04:51.809Z,79.00
2018-12-18T01:07:21.156Z,85.17
2018-12-18T01:09:50.401Z,88.10
2018-12-18T01:12:19.684Z,87.60
2018-12-18T01:14:48.998Z,87.10
2018-12-18T01:17:18.275Z,87.10
2018-12-18T01:19:47.611Z,84.60
2018-12-18T01:22:16.889Z,92.97
2018-12-18T01:24:46.139Z,87.53
2018-12-18T01:27:18.153Z,88.37
2018-12-18T01:29:47.494Z,90.73
2018-12-18T01:32:16.807Z,83.90
2018-12-18T01:34:46.544Z,88.87
2018-12-18T01:37:15.807Z,88.23
2018-12-18T01:39:45.048Z,84.17
2018-12-18T01:42:14.451Z,80.87
2018-12-18T01:44:43.750Z,81.93
2018-12-18T01:47:12.974Z,79.83
2018-12-18T01:49:42.304Z,80.73
2018-12-18T01:52:11.555Z,77.80
2018-12-18T01:54:41.045Z,81.90
2018-12-18T01:57:10.339Z,79.53
2018-12-18T01:59:39.710Z,83.33
2018-12-18T02:02:09.054Z,80.10
2018-12-18T02:04:38.377Z,77.53
2018-12-18T02:07:07.638Z,84.77
2018-12-18T02:09:36.933Z,79.77
2018-12-18T02:12:06.318Z,77.10
2018-12-18T02:14:35.577Z,78.83
2018-12-18T02:17:04.907Z,79.07
2018-12-18T02:19:34.252Z,76.30
2018-12-18T02:22:03.596Z,76.80
2018-12-18T02:24:34.702Z,78.50
2018-12-18T02:27:04.065Z,79.33
2018-12-18T02:29:33.368Z,79.43
2018-12-18T02:32:02.803Z,81.80
2018-12-18T02:34:32.084Z,78.03
2018-12-18T02:37:04.127Z,79.00
2018-12-18T02:39:33.465Z,84.97
2018-12-18T02:42:02.688Z,77.50
2018-12-18T02:44:31.959Z,83.80
2018-12-18T02:47:01.225Z,83.83
2018-12-18T02:49:30.438Z,82.37
2018-12-18T02:51:59.642Z,80.77
2018-12-18T02:54:29.408Z,84.20
2018-12-18T02:56:59.698Z,81.57
2018-12-18T02:59:28.918Z,86.70
2018-12-18T03:01:58.199Z,88.67
2018-12-18T03:04:27.399Z,88.43
2018-12-18T03:06:56.603Z,86.60
2018-12-18T03:09:25.846Z,83.43
2018-12-18T03:11:55.018Z,91.00
2018-12-18T03:14:24.335Z,97.83
2018-12-18T03:16:53.621Z,93.53
2018-12-18T03:19:23.167Z,92.03
2018-12-18T03:21:52.495Z,88.60
2018-12-18T03:24:21.810Z,92.77
2018-12-18T03:26:51.045Z,91.67
2018-12-18T03:29:20.412Z,91.40
2018-12-18T03:31:53.952Z,91.30
2018-12-18T03:34:28.214Z,92.90
2018-12-18T03:36:55.073Z,86.67
2018-12-18T03:39:25.383Z,91.50
2018-12-18T03:41:55.025Z,91.63
2018-12-18T03:44:25.741Z,87.17
2018-12-18T03:46:55.052Z,81.97
2018-12-18T03:49:24.325Z,82.53
2018-12-18T03:51:53.692Z,84.00
2018-12-18T03:54:22.939Z,83.03
2018-12-18T03:56:52.205Z,76.07
2018-12-18T03:59:21.436Z,77.00
2018-12-18T04:01:50.699Z,79.80
2018-12-18T04:04:20.077Z,80.27
2018-12-18T04:06:49.254Z,77.73
2018-12-18T04:09:18.419Z,79.27
2018-12-18T04:11:51.832Z,75.43
2018-12-18T04:14:21.071Z,80.07
2018-12-18T04:16:50.286Z,81.63
2018-12-18T04:19:22.457Z,79.20
2018-12-18T04:21:51.847Z,77.80
2018-12-18T04:24:21.242Z,79.17
2018-12-18T04:26:50.757Z,76.17
2018-12-18T04:29:20.147Z,75.60
2018-12-18T04:31:52.276Z,74.83
2018-12-18T04:34:21.509Z,70.83
2018-12-18T04:36:50.755Z,71.63
2018-12-18T04:39:20.007Z,71.17
2018-12-18T04:41:49.349Z,77.67
2018-12-18T04:44:18.520Z,69.67
2018-12-18T04:46:47.775Z,72.30
2018-12-18T04:49:18.835Z,73.57
2018-12-18T04:51:48.044Z,79.23
2018-12-18T04:54:17.300Z,75.30
2018-12-18T04:56:47.111Z,69.07
2018-12-18T04:59:16.509Z,72.57
2018-12-18T05:01:46.045Z,71.10
2018-12-18T05:04:15.365Z,73.50
2018-12-18T05:06:44.750Z,67.37
2018-12-18T05:09:14.687Z,72.07
2018-12-18T05:11:44.255Z,73.27
2018-12-18T05:14:13.526Z,70.67
2018-12-18T05:16:42.860Z,68.70
2018-12-18T05:19:12.460Z,70.30
2018-12-18T05:21:41.671Z,66.10
2018-12-18T05:24:10.953Z,69.63
2018-12-18T05:26:40.318Z,69.53
2018-12-18T05:29:09.647Z,69.30
2018-12-18T05:31:38.933Z,64.07
2018-12-18T05:34:08.190Z,71.03
2018-12-18T05:36:37.723Z,66.73
2018-12-18T05:39:07.810Z,65.93
2018-12-18T05:41:37.197Z,70.03
2018-12-18T05:44:08.438Z,69.37
2018-12-18T05:46:37.910Z,72.47
2018-12-18T05:49:07.184Z,74.03
2018-12-18T05:51:36.868Z,72.47
2018-12-18T05:54:06.147Z,69.53
2018-12-18T05:56:35.505Z,74.27
2018-12-18T05:59:05.217Z,70.27
2018-12-18T06:01:34.722Z,68.43
2018-12-18T06:04:05.667Z,64.33
2018-12-18T06:06:35.025Z,66.10
2018-12-18T06:09:06.762Z,63.87
2018-12-18T06:11:36.153Z,61.67
2018-12-18T06:14:05.617Z,59.30
2018-12-18T06:16:35.500Z,62.17
2018-12-18T06:19:04.822Z,62.30
2018-12-18T06:21:34.350Z,66.37
2018-12-18T06:24:03.793Z,67.67
2018-12-18T06:26:33.246Z,66.70
2018-12-18T06:29:02.635Z,68.83
2018-12-18T06:31:31.951Z,67.47
2018-12-18T06:34:01.329Z,69.17
2018-12-18T06:36:31.203Z,68.30
2018-12-18T06:39:00.631Z,70.87
2018-12-18T06:41:30.031Z,68.50
2018-12-18T06:43:59.425Z,69.47
2018-12-18T06:46:28.771Z,72.37
2018-12-18T06:48:59.216Z,73.00
2018-12-18T06:51:28.572Z,69.40
2018-12-18T06:53:57.965Z,72.37
2018-12-18T06:56:27.385Z,70.80
2018-12-18T06:58:56.826Z,69.50
2018-12-18T07:01:26.266Z,76.77
2018-12-18T07:03:55.675Z,73.40
2018-12-18T07:06:24.950Z,71.53
2018-12-18T07:08:54.269Z,71.10
2018-12-18T07:11:23.641Z,71.80
2018-12-18T07:13:53.009Z,68.73
2018-12-18T07:16:22.366Z,68.70
2018-12-18T07:18:51.707Z,68.70
2018-12-18T07:21:20.986Z,73.03
2018-12-18T07:23:50.407Z,75.60
2018-12-18T07:26:20.734Z,70.43
2018-12-18T07:28:50.203Z,75.17
2018-12-18T07:31:19.576Z,79.43
2018-12-18T07:33:48.801Z,75.10
2018-12-18T07:36:18.282Z,72.40
2018-12-18T07:38:47.924Z,69.80
2018-12-18T07:41:17.505Z,72.27
2018-12-18T07:43:46.944Z,67.90
2018-12-18T07:46:16.323Z,68.63
2018-12-18T07:48:45.665Z,69.03
2018-12-18T07:51:15.057Z,73.23
2018-12-18T07:53:44.491Z,71.50
2018-12-18T07:56:13.838Z,73.13
2018-12-18T07:58:43.200Z,73.70
2018-12-18T08:01:12.617Z,73.83
2018-12-18T08:03:41.966Z,77.23
2018-12-18T08:06:12.313Z,76.13
2018-12-18T08:08:41.713Z,80.07
2018-12-18T08:11:11.245Z,77.87
2018-12-18T08:13:40.457Z,78.77
2018-12-18T08:16:09.924Z,78.13
2018-12-18T08:18:39.277Z,79.60
2018-12-18T08:21:08.656Z,78.70
2018-12-18T08:23:38.212Z,76.17
2018-12-18T08:26:07.501Z,80.83
2018-12-18T08:28:41.233Z,78.13
2018-12-18T08:31:16.059Z,73.20
2018-12-18T08:33:50.346Z,74.43
2018-12-18T08:36:33.595Z,69.87
2018-12-18T08:39:14.512Z,71.20
2018-12-18T08:41:44.359Z,69.90
2018-12-18T08:44:13.713Z,72.63
2018-12-18T08:46:43.315Z,69.67
2018-12-18T08:49:12.629Z,67.50
2018-12-18T08:51:42.137Z,67.77
2018-12-18T08:54:12.416Z,73.73
2018-12-18T08:56:41.790Z,69.40
2018-12-18T08:59:11.282Z,66.67
2018-12-18T09:01:40.725Z,68.60
2018-12-18T09:04:09.975Z,63.77
2018-12-18T09:06:39.623Z,63.77
2018-12-18T09:09:08.911Z,66.00
2018-12-18T09:11:38.748Z,60.60
2018-12-18T09:14:08.055Z,59.90
2018-12-18T09:16:41.609Z,60.40
2018-12-18T09:19:10.974Z,66.20
2018-12-18T09:21:40.310Z,59.03
2018-12-18T09:24:11.318Z,64.93
2018-12-18T09:26:40.749Z,69.87
2018-12-18T09:29:10.151Z,69.47
2018-12-18T09:31:41.471Z,67.40
2018-12-18T09:34:10.797Z,68.37
2018-12-18T09:36:40.143Z,60.17
2018-12-18T09:39:13.599Z,62.57
2018-12-18T09:41:49.304Z,60.33
2018-12-18T09:44:19.064Z,61.63
2018-12-18T09:46:48.442Z,59.30
2018-12-18T09:49:17.729Z,63.03
2018-12-18T09:51:47.031Z,61.50
2018-12-18T09:54:16.731Z,60.77
2018-12-18T09:56:50.264Z,59.30
2018-12-18T09:59:19.864Z,57.80
2018-12-18T10:01:49.218Z,54.43
2018-12-18T10:04:19.783Z,51.37
2018-12-18T10:06:49.165Z,50.57
2018-12-18T10:09:18.487Z,54.13
2018-12-18T10:11:47.912Z,53.67
2018-12-18T10:14:17.294Z,54.17
2018-12-18T10:16:46.534Z,53.40
2018-12-18T10:19:15.977Z,51.97
2018-12-18T10:21:45.478Z,54.33
2018-12-18T10:24:21.232Z,56.93
2018-12-18T10:26:50.751Z,55.13
2018-12-18T10:29:20.044Z,52.10
2018-12-18T10:31:49.406Z,47.30
2018-12-18T10:34:19.627Z,50.37
2018-12-18T10:36:51.326Z,54.13
2018-12-18T10:39:20.907Z,45.00
2018-12-18T10:41:50.306Z,45.73
2018-12-18T10:44:19.711Z,45.40
2018-12-18T10:46:48.948Z,42.47
2018-12-18T10:49:19.177Z,45.33
2018-12-18T10:51:48.831Z,47.80
2018-12-18T10:54:19.645Z,50.17
2018-12-18T10:56:49.279Z,46.80
2018-12-18T10:59:18.570Z,45.23
2018-12-18T11:01:48.694Z,45.47
2018-12-18T11:04:18.060Z,58.17
2018-12-18T11:06:47.408Z,77.63
2018-12-18T11:09:16.902Z,57.90
2018-12-18T11:11:46.284Z,49.73
2018-12-18T11:14:15.625Z,44.83
2018-12-18T11:16:44.998Z,45.63
2018-12-18T11:19:14.238Z,44.20
2018-12-18T11:21:43.590Z,44.80
2018-12-18T11:24:12.919Z,42.97
2018-12-18T11:26:42.304Z,43.37
2018-12-18T11:29:11.605Z,41.17
2018-12-18T11:31:40.981Z,42.63
2018-12-18T11:34:10.410Z,42.97
2018-12-18T11:36:39.778Z,39.57
2018-12-18T11:39:10.205Z,39.63
2018-12-18T11:41:39.709Z,40.83
2018-12-18T11:44:09.006Z,41.50
2018-12-18T11:46:38.378Z,42.37
2018-12-18T11:49:11.393Z,43.20
2018-12-18T11:51:40.792Z,40.03
2018-12-18T11:54:10.033Z,43.77
2018-12-18T11:56:39.418Z,42.87
2018-12-18T11:59:08.806Z,44.57
2018-12-18T12:01:38.031Z,47.00
2018-12-18T12:04:07.388Z,47.70
2018-12-18T12:06:38.634Z,54.20
2018-12-18T12:09:08.947Z,52.03
2018-12-18T12:11:38.262Z,56.83
2018-12-18T12:14:07.603Z,61.80
2018-12-18T12:16:36.939Z,62.10
2018-12-18T12:19:06.355Z,60.77
2018-12-18T12:21:35.585Z,58.63
2018-12-18T12:24:05.044Z,57.90
2018-12-18T12:26:35.206Z,57.83
2018-12-18T12:29:04.584Z,58.40
2018-12-18T12:31:33.960Z,57.83
2018-12-18T12:34:03.363Z,55.93
2018-12-18T12:36:32.884Z,59.10
2018-12-18T12:39:02.314Z,58.30
2018-12-18T12:41:33.815Z,58.73
2018-12-18T12:44:03.588Z,54.70
2018-12-18T12:46:32.970Z,54.87
2018-12-18T12:49:06.521Z,51.43
2018-12-18T12:51:35.821Z,49.33
2018-12-18T12:54:06.104Z,50.93
2018-12-18T12:56:35.482Z,51.60
2018-12-18T12:59:04.731Z,51.43
2018-12-18T13:01:34.192Z,48.30
2018-12-18T13:04:03.631Z,48.57
2018-12-18T13:06:36.357Z,48.07
2018-12-18T13:09:09.921Z,47.33
2018-12-18T13:11:39.221Z,49.30
2018-12-18T13:14:08.523Z,45.73
2018-12-18T13:16:38.023Z,44.77
2018-12-18T13:19:07.422Z,43.27
2018-12-18T13:21:36.749Z,42.07
2018-12-18T13:24:06.122Z,45.60
2018-12-18T13:26:35.455Z,46.60
2018-12-18T13:29:04.924Z,52.15
2018-12-18T13:31:34.258Z,43.73
2018-12-18T13:34:03.537Z,41.50
2018-12-18T13:36:35.949Z,40.37
2018-12-18T13:39:07.432Z,42.90
2018-12-18T13:41:36.862Z,40.73
2018-12-18T13:44:06.133Z,40.93
2018-12-18T13:46:36.282Z,41.03
2018-12-18T13:49:05.602Z,43.27
2018-12-18T13:51:34.902Z,39.23
2018-12-18T13:54:04.283Z,40.40
2018-12-18T13:56:33.703Z,37.73
2018-12-18T13:59:03.064Z,38.90
2018-12-18T14:01:32.369Z,40.53
2018-12-18T14:04:02.541Z,41.00
2018-12-18T14:06:32.168Z,44.10
2018-12-18T14:09:01.783Z,41.00
2018-12-18T14:11:33.031Z,40.50
2018-12-18T14:14:02.517Z,39.13
2018-12-18T14:16:31.861Z,40.97
2018-12-18T14:19:01.218Z,37.93
2018-12-18T14:21:31.609Z,36.47
2018-12-18T14:24:01.074Z,38.10
2018-12-18T14:26:30.458Z,36.13
2018-12-18T14:28:59.848Z,38.97
2018-12-18T14:31:29.663Z,37.33
2018-12-18T14:33:59.166Z,40.90
2018-12-18T14:36:28.750Z,38.53
2018-12-18T14:38:58.204Z,39.43
2018-12-18T14:41:28.252Z,41.10
2018-12-18T14:43:57.679Z,41.60
2018-12-18T14:46:28.123Z,40.97
2018-12-18T14:48:57.512Z,39.43
2018-12-18T14:51:27.115Z,42.23
2018-12-18T14:53:58.579Z,42.30
2018-12-18T14:56:28.129Z,44.07
2018-12-18T14:58:57.483Z,39.07
2018-12-18T15:01:26.815Z,39.23
2018-12-18T15:04:20.909Z,40.10
2018-12-18T15:06:54.584Z,37.20
2018-12-18T15:09:27.102Z,43.90
2018-12-18T15:11:56.524Z,40.53
2018-12-18T15:14:26.223Z,42.63
2018-12-18T15:16:55.694Z,48.87
2018-12-18T15:19:26.053Z,43.27
2018-12-18T15:21:55.523Z,41.50
2018-12-18T15:24:24.868Z,45.63
2018-12-18T15:26:54.623Z,45.50
2018-12-18T15:29:23.970Z,44.20
2018-12-18T15:31:53.324Z,49.07
2018-12-18T15:34:22.747Z,48.83
2018-12-18T15:36:52.933Z,48.90
2018-12-18T15:39:22.352Z,50.17
2018-12-18T15:41:51.785Z,50.03
2018-12-18T15:44:21.143Z,49.50
2018-12-18T15:46:50.410Z,51.37
2018-12-18T15:49:19.740Z,53.53
2018-12-18T15:51:49.095Z,47.97
2018-12-18T15:54:18.477Z,51.63
2018-12-18T15:56:47.823Z,51.63
2018-12-18T15:59:17.234Z,50.23
2018-12-18T16:01:46.608Z,54.40
2018-12-18T16:04:16.005Z,53.70
2018-12-18T16:06:45.243Z,60.37
2018-12-18T16:09:14.682Z,64.50
2018-12-18T16:11:44.035Z,59.00
2018-12-18T16:14:13.336Z,54.67
2018-12-18T16:16:42.872Z,56.27
2018-12-18T16:19:12.319Z,56.23
2018-12-18T16:21:41.904Z,55.93
2018-12-18T16:24:11.275Z,56.93
2018-12-18T16:26:40.580Z,58.73
2018-12-18T16:29:10.691Z,56.67
2018-12-18T16:31:40.015Z,57.27
2018-12-18T16:34:09.276Z,57.87
2018-12-18T16:36:38.548Z,60.23
2018-12-18T16:39:09.223Z,61.17
2018-12-18T16:41:49.215Z,59.57
2018-12-18T16:44:24.317Z,56.03
2018-12-18T16:46:56.703Z,55.50
2018-12-18T16:49:26.028Z,57.00
2018-12-18T16:51:55.396Z,57.23
2018-12-18T16:54:25.106Z,61.17
2018-12-18T16:56:54.908Z,56.83
2018-12-18T16:59:24.324Z,59.60
2018-12-18T17:01:53.783Z,59.57
2018-12-18T17:04:23.043Z,58.77
2018-12-18T17:06:52.568Z,60.80
2018-12-18T17:09:22.013Z,63.87
2018-12-18T17:11:51.403Z,62.50
2018-12-18T17:14:20.899Z,70.00
2018-12-18T17:16:50.284Z,64.30
2018-12-18T17:19:19.703Z,64.30
2018-12-18T17:21:48.970Z,67.03
2018-12-18T17:24:19.423Z,64.30
2018-12-18T17:26:48.705Z,63.77
2018-12-18T17:29:18.010Z,67.47
2018-12-18T17:31:47.369Z,67.60
2018-12-18T17:34:16.829Z,67.23
2018-12-18T17:36:46.163Z,66.60
2018-12-18T17:39:15.491Z,65.13
2018-12-18T17:41:44.909Z,65.83
2018-12-18T17:44:14.403Z,68.03
2018-12-18T17:46:43.712Z,76.40
2018-12-18T17:49:13.188Z,75.57
2018-12-18T17:51:42.646Z,64.83
2018-12-18T17:54:12.006Z,65.53
2018-12-18T17:56:42.039Z,66.27
2018-12-18T17:59:14.222Z,68.07
2018-12-18T18:01:43.685Z,67.73
2018-12-18T18:04:12.983Z,69.73
2018-12-18T18:06:43.833Z,67.23
2018-12-18T18:09:13.371Z,68.30
2018-12-18T18:11:42.908Z,68.40
2018-12-18T18:14:14.104Z,72.47
2018-12-18T18:16:43.593Z,75.10
2018-12-18T18:19:12.934Z,69.23
2018-12-18T18:21:44.564Z,73.27
2018-12-18T18:24:14.065Z,70.83
2018-12-18T18:26:43.399Z,72.10
2018-12-18T18:29:12.884Z,74.00
2018-12-18T18:31:42.347Z,72.50
2018-12-18T18:34:12.605Z,69.50
2018-12-18T18:36:42.213Z,74.27
2018-12-18T18:39:11.672Z,71.43
2018-12-18T18:41:41.048Z,75.13
2018-12-18T18:44:10.450Z,77.57
2018-12-18T18:46:39.825Z,75.63
2018-12-18T18:49:09.194Z,77.67
2018-12-18T18:51:38.485Z,81.33
2018-12-18T18:54:07.854Z,80.20
2018-12-18T18:56:37.424Z,80.00
2018-12-18T18:59:06.783Z,77.17
2018-12-18T19:01:36.283Z,78.40
2018-12-18T19:04:05.775Z,86.40
2018-12-18T19:06:35.550Z,84.93
2018-12-18T19:09:07.708Z,84.27
2018-12-18T19:11:40.135Z,82.30
2018-12-18T19:14:09.414Z,84.60
2018-12-18T19:16:38.848Z,85.17
2018-12-18T19:19:08.272Z,83.87
2018-12-18T19:21:37.625Z,85.43
2018-12-18T19:24:07.030Z,85.27
2018-12-18T19:26:36.430Z,82.43
2018-12-18T19:29:06.841Z,82.43
2018-12-18T19:31:36.281Z,84.63
2018-12-18T19:34:05.633Z,81.50
2018-12-18T19:36:35.484Z,80.83
2018-12-18T19:39:08.103Z,83.17
2018-12-18T19:41:39.445Z,84.40
2018-12-18T19:44:08.820Z,89.63
2018-12-18T19:46:38.344Z,85.67
2018-12-18T19:49:10.527Z,83.80
2018-12-18T19:51:40.092Z,83.63
2018-12-18T19:54:09.790Z,76.47
2018-12-18T19:56:39.095Z,81.40
2018-12-18T19:59:10.911Z,75.73
2018-12-18T20:01:39.967Z,80.33
2018-12-18T20:04:09.393Z,78.17
2018-12-18T20:06:38.802Z,76.57
2018-12-18T20:09:08.498Z,81.93
2018-12-18T20:11:39.759Z,84.00
2018-12-18T20:14:10.471Z,89.97
2018-12-18T20:16:40.808Z,84.40
2018-12-18T20:19:11.617Z,85.63
2018-12-18T20:21:41.008Z,83.93
2018-12-18T20:24:12.398Z,82.43
2018-12-18T20:26:46.617Z,84.37
2018-12-18T20:29:16.226Z,81.87
2018-12-18T20:31:46.380Z,84.23
2018-12-18T20:34:16.756Z,84.80
2018-12-18T20:36:46.064Z,92.47
2018-12-18T20:39:24.112Z,87.10
2018-12-18T20:41:56.372Z,82.90
2018-12-18T20:44:25.822Z,76.70
2018-12-18T20:46:55.212Z,76.10
2018-12-18T20:49:24.753Z,75.17
2018-12-18T20:51:54.244Z,78.00
2018-12-18T20:54:23.840Z,79.10
2018-12-18T20:56:53.492Z,81.43
2018-12-18T20:59:23.277Z,82.67
2018-12-18T21:01:53.003Z,78.00
2018-12-18T21:04:23.090Z,78.30
2018-12-18T21:06:53.280Z,80.70
2018-12-18T21:09:22.633Z,77.10
2018-12-18T21:11:52.017Z,82.73
2018-12-18T21:14:21.368Z,80.37
2018-12-18T21:16:51.229Z,74.43
2018-12-18T21:19:20.652Z,75.60
2018-12-18T21:21:51.441Z,75.27
2018-12-18T21:24:22.066Z,79.43
2018-12-18T21:26:51.724Z,80.30
2018-12-18T21:29:21.180Z,76.57
2018-12-18T21:31:50.583Z,76.93
2018-12-18T21:34:19.967Z,74.27
2018-12-18T21:36:49.655Z,72.70
2018-12-18T21:39:19.061Z,72.97
2018-12-18T21:41:48.424Z,70.93
2018-12-18T21:44:17.884Z,72.70
2018-12-18T21:46:47.926Z,75.27
2018-12-18T21:49:17.841Z,68.60
2018-12-18T21:51:47.342Z,73.20
2018-12-18T21:54:16.763Z,72.87
2018-12-18T21:56:46.239Z,72.80
2018-12-18T21:59:17.210Z,71.10
2018-12-18T22:01:49.156Z,76.33
2018-12-18T22:04:18.682Z,68.43
2018-12-18T22:06:48.035Z,69.07
2018-12-18T22:09:17.324Z,66.03
2018-12-18T22:11:46.808Z,75.20
2018-12-18T22:14:19.194Z,75.47
2018-12-18T22:16:48.711Z,74.40
2018-12-18T22:19:18.712Z,78.30
2018-12-18T22:21:48.023Z,78.63
2018-12-18T22:24:17.344Z,80.03
2018-12-18T22:26:48.581Z,81.97
2018-12-18T22:29:17.946Z,87.53
2018-12-18T22:31:47.284Z,85.17
2018-12-18T22:34:18.054Z,83.67
2018-12-18T22:36:47.448Z,86.10
2018-12-18T22:39:16.779Z,83.47
2018-12-18T22:41:46.059Z,80.67
2018-12-18T22:44:15.504Z,81.63
2018-12-18T22:46:44.863Z,78.80
2018-12-18T22:49:14.180Z,83.17
2018-12-18T22:51:43.579Z,84.57
2018-12-18T22:54:13.092Z,84.70
2018-12-18T22:56:42.602Z,82.30
2018-12-18T22:59:12.003Z,81.23
2018-12-18T23:01:45.524Z,83.27
2018-12-18T23:04:15.727Z,84.17
2018-12-18T23:06:45.202Z,83.10
2018-12-18T23:09:14.931Z,83.10
2018-12-18T23:11:44.468Z,80.23
2018-12-18T23:14:13.782Z,77.43
2018-12-18T23:16:43.211Z,83.37
2018-12-18T23:19:12.560Z,80.20
2018-12-18T23:21:41.899Z,82.23
2018-12-18T23:24:11.220Z,81.97
2018-12-18T23:26:40.506Z,84.37
2018-12-18T23:29:09.891Z,81.23
2018-12-18T23:31:39.439Z,87.37
2018-12-18T23:34:08.798Z,90.50
2018-12-18T23:36:38.100Z,89.30
2018-12-18T23:39:08.569Z,88.63
2018-12-18T23:41:39.712Z,91.07
2018-12-18T23:44:08.985Z,82.63
2018-12-18T23:46:38.300Z,89.37
2018-12-18T23:49:07.565Z,82.37
2018-12-18T23:51:36.847Z,77.53
2018-12-18T23:54:06.291Z,72.90
2018-12-18T23:56:35.664Z,75.73
2018-12-18T23:59:05.067Z,73.87
